BAW3G EGLL-KMIA
Flight info
| Callsign | BAW3G |
|---|---|
| Flight time | N/A |
| Altitude | 34000 |
| Route | GASGU N514 ADKIK DCT JOZMA DCT ARKIL/M085F340 DCT SOMAX DCT 50N020W 49N030W 47N040W 45N045W 42N050W/M085F380 36N060W DCT BALOO DCT BALTN M329 BOREX/M085F400 M329 GRATX/N0487F400 M329 ZQA VIICE2 |
| Aircraft | A35K/H-SDE2E3GHIJ3J4J5LM1ORWXY/LB1D1 |
Departure
| Time | 2026-05-08 07:18 |
|---|---|
| Airport | London Heathrow Airport (EGLL) |
Arrival
| Time | N/A |
|---|---|
| Airport | Miami International Airport (KMIA) |
| Time | Latitude | Longitude | Altitude | Speed | Heading |
|---|---|---|---|---|---|
| 2026-05-08 07:09 | 51.47048 | -0.48243 | 93 ft | 0 kts | 90° |
| 2026-05-08 07:11 | 51.47048 | -0.48246 | 93 ft | 2 kts | 90° |
| 2026-05-08 07:12 | 51.47048 | -0.48287 | 93 ft | 2 kts | 90° |
| 2026-05-08 07:12 | 51.47049 | -0.48322 | 94 ft | 4 kts | 111° |
| 2026-05-08 07:12 | 51.47056 | -0.48344 | 93 ft | 4 kts | 141° |
| 2026-05-08 07:12 | 51.47073 | -0.48359 | 96 ft | 4 kts | 174° |
| 2026-05-08 07:13 | 51.47099 | -0.48360 | 94 ft | 4 kts | 181° |
| 2026-05-08 07:13 | 51.47113 | -0.48360 | 93 ft | 1 kts | 179° |
| 2026-05-08 07:13 | 51.47115 | -0.48360 | 93 ft | 0 kts | 179° |
| 2026-05-08 07:14 | 51.47114 | -0.48360 | 92 ft | 1 kts | 179° |
| 2026-05-08 07:14 | 51.47086 | -0.48358 | 93 ft | 8 kts | 178° |
| 2026-05-08 07:15 | 51.47015 | -0.48357 | 94 ft | 13 kts | 181° |
| 2026-05-08 07:15 | 51.46905 | -0.48359 | 95 ft | 18 kts | 179° |
| 2026-05-08 07:15 | 51.46800 | -0.48357 | 95 ft | 7 kts | 182° |
| 2026-05-08 07:15 | 51.46763 | -0.48380 | 97 ft | 6 kts | 216° |
| 2026-05-08 07:16 | 51.46724 | -0.48443 | 94 ft | 10 kts | 211° |
| 2026-05-08 07:16 | 51.46641 | -0.48469 | 93 ft | 14 kts | 181° |
| 2026-05-08 07:16 | 51.46564 | -0.48470 | 95 ft | 9 kts | 181° |
| 2026-05-08 07:16 | 51.46546 | -0.48471 | 96 ft | 1 kts | 181° |
| 2026-05-08 07:17 | 51.46518 | -0.48472 | 97 ft | 7 kts | 181° |
| 2026-05-08 07:17 | 51.46496 | -0.48464 | 97 ft | 5 kts | 155° |
| 2026-05-08 07:17 | 51.46483 | -0.48421 | 96 ft | 7 kts | 105° |
| 2026-05-08 07:17 | 51.46474 | -0.48251 | 98 ft | 39 kts | 94° |
| 2026-05-08 07:18 | 51.46473 | -0.47486 | 95 ft | 97 kts | 90° |
| 2026-05-08 07:18 | 51.46482 | -0.46645 | 97 ft | 130 kts | 89° |
| 2026-05-08 07:18 | 51.46486 | -0.44321 | 428 ft | 160 kts | 89° |
| 2026-05-08 07:18 | 51.46430 | -0.42614 | 1054 ft | 160 kts | 107° |
| 2026-05-08 07:19 | 51.45779 | -0.41025 | 1262 ft | 185 kts | 132° |
| 2026-05-08 07:19 | 51.44940 | -0.39429 | 1819 ft | 187 kts | 130° |
| 2026-05-08 07:19 | 51.43961 | -0.37960 | 2174 ft | 202 kts | 146° |
| 2026-05-08 07:19 | 51.42630 | -0.37092 | 2577 ft | 212 kts | 168° |
| 2026-05-08 07:20 | 51.41144 | -0.37107 | 3085 ft | 219 kts | 188° |
| 2026-05-08 07:20 | 51.39617 | -0.37725 | 3365 ft | 240 kts | 195° |
| 2026-05-08 07:20 | 51.37982 | -0.38563 | 3861 ft | 251 kts | 197° |
| 2026-05-08 07:20 | 51.36318 | -0.39460 | 4534 ft | 254 kts | 199° |
| 2026-05-08 07:21 | 51.34680 | -0.40593 | 5173 ft | 259 kts | 206° |
| 2026-05-08 07:21 | 51.33150 | -0.42134 | 5819 ft | 262 kts | 216° |
| 2026-05-08 07:21 | 51.31777 | -0.44089 | 6516 ft | 266 kts | 225° |
| 2026-05-08 07:21 | 51.30607 | -0.46392 | 7176 ft | 268 kts | 233° |
| 2026-05-08 07:22 | 51.29702 | -0.49001 | 7897 ft | 270 kts | 247° |
| 2026-05-08 07:22 | 51.29125 | -0.51860 | 8625 ft | 271 kts | 252° |
| 2026-05-08 07:22 | 51.28623 | -0.54768 | 9377 ft | 272 kts | 253° |
| 2026-05-08 07:22 | 51.28124 | -0.57689 | 10107 ft | 274 kts | 253° |
| 2026-05-08 07:23 | 51.27580 | -0.60675 | 10492 ft | 287 kts | 252° |
| 2026-05-08 07:23 | 51.26976 | -0.63802 | 10787 ft | 302 kts | 251° |
| 2026-05-08 07:23 | 51.26554 | -0.65961 | 10983 ft | 312 kts | 251° |
| 2026-05-08 07:23 | 51.25892 | -0.69346 | 11267 ft | 327 kts | 251° |
| 2026-05-08 07:24 | 51.25201 | -0.72879 | 11556 ft | 340 kts | 251° |
| 2026-05-08 07:24 | 51.24483 | -0.76551 | 11856 ft | 352 kts | 251° |
| 2026-05-08 07:24 | 51.23747 | -0.80316 | 12308 ft | 358 kts | 251° |
| 2026-05-08 07:24 | 51.23000 | -0.84132 | 12855 ft | 362 kts | 251° |
| 2026-05-08 07:25 | 51.22243 | -0.87992 | 13385 ft | 366 kts | 251° |
| 2026-05-08 07:25 | 51.21478 | -0.91875 | 13927 ft | 369 kts | 251° |
| 2026-05-08 07:25 | 51.19219 | -0.99240 | 14846 ft | 373 kts | 235° |
| 2026-05-08 07:26 | 51.17697 | -1.02608 | 15337 ft | 376 kts | 232° |
| 2026-05-08 07:26 | 51.16078 | -1.05896 | 15817 ft | 379 kts | 230° |
| 2026-05-08 07:26 | 51.14411 | -1.09173 | 16280 ft | 382 kts | 230° |
| 2026-05-08 07:26 | 51.12732 | -1.12468 | 16768 ft | 385 kts | 230° |
| 2026-05-08 07:27 | 51.11043 | -1.15814 | 17241 ft | 389 kts | 230° |
| 2026-05-08 07:27 | 51.09359 | -1.19192 | 17687 ft | 392 kts | 231° |
| 2026-05-08 07:27 | 51.07666 | -1.22620 | 18150 ft | 395 kts | 231° |
| 2026-05-08 07:27 | 51.05971 | -1.26076 | 18584 ft | 398 kts | 231° |
| 2026-05-08 07:28 | 51.04258 | -1.29566 | 18984 ft | 401 kts | 231° |
| 2026-05-08 07:28 | 51.02536 | -1.33070 | 19424 ft | 404 kts | 231° |
| 2026-05-08 07:28 | 51.00961 | -1.36713 | 19812 ft | 407 kts | 239° |
| 2026-05-08 07:28 | 50.99738 | -1.40841 | 20242 ft | 410 kts | 248° |
| 2026-05-08 07:29 | 50.98806 | -1.45139 | 20663 ft | 414 kts | 251° |
| 2026-05-08 07:29 | 50.97995 | -1.49538 | 21081 ft | 416 kts | 253° |
| 2026-05-08 07:29 | 50.97248 | -1.53989 | 21514 ft | 419 kts | 254° |
| 2026-05-08 07:29 | 50.96529 | -1.58420 | 21944 ft | 421 kts | 255° |
| 2026-05-08 07:30 | 50.95785 | -1.62989 | 22365 ft | 424 kts | 254° |
| 2026-05-08 07:30 | 50.95032 | -1.67537 | 22773 ft | 427 kts | 254° |
| 2026-05-08 07:30 | 50.94264 | -1.72090 | 23214 ft | 429 kts | 254° |
| 2026-05-08 07:30 | 50.93478 | -1.76682 | 23626 ft | 432 kts | 254° |
| 2026-05-08 07:31 | 50.92683 | -1.81282 | 23981 ft | 434 kts | 254° |
| 2026-05-08 07:31 | 50.91877 | -1.85910 | 24371 ft | 436 kts | 254° |
| 2026-05-08 07:31 | 50.91067 | -1.90541 | 24738 ft | 438 kts | 255° |
| 2026-05-08 07:31 | 50.90251 | -1.95199 | 25092 ft | 440 kts | 255° |
| 2026-05-08 07:32 | 50.89429 | -1.99886 | 25413 ft | 443 kts | 255° |